Terminal Aerodrome Forecast
Issued by NWS Columbia, SC

Home | Current Version | Previous Version | Text Only | Print | Product List | Glossary On
Versions: 1 2 3 4 5 6 7 8 9 10 11 12 13 14 15 16 17 18 19 20 21 22 23 24 25 26 27 28 29 30 31 32
000
FTUS42 KCAE 261022 AAD
TAFCAE
TAF AMD
KCAE 261022Z 2610/2706 VRB03KT P6SM BKN008
     FM261500 14004KT P6SM BKN040
     FM262300 12006KT P6SM VCSH BKN040
     FM270400 VRB03KT P6SM OVC040=

USA.gov is the U.S. government's official web portal to all federal, state and local government web resources and services.